sensor_id;sensor_type;location;lat;lon;timestamp;P1;durP1;ratioP1;P2;durP2;ratioP2
51814;SDS011;37874;53.158;6.766;2023-05-23T00:00:53;6.68;;;3.85;;
51814;SDS011;37874;53.158;6.766;2023-05-23T00:03:19;6.63;;;4.05;;
51814;SDS011;37874;53.158;6.766;2023-05-23T00:05:46;6.03;;;3.65;;
51814;SDS011;37874;53.158;6.766;2023-05-23T00:08:12;7.50;;;3.65;;
51814;SDS011;37874;53.158;6.766;2023-05-23T00:10:38;4.75;;;3.33;;
51814;SDS011;37874;53.158;6.766;2023-05-23T00:13:04;5.57;;;3.13;;
51814;SDS011;37874;53.158;6.766;2023-05-23T00:15:33;6.35;;;3.65;;
51814;SDS011;37874;53.158;6.766;2023-05-23T00:18:06;6.80;;;3.83;;
51814;SDS011;37874;53.158;6.766;2023-05-23T00:20:33;8.68;;;4.25;;
51814;SDS011;37874;53.158;6.766;2023-05-23T00:23:00;5.60;;;3.72;;
51814;SDS011;37874;53.158;6.766;2023-05-23T00:25:27;7.15;;;3.53;;
51814;SDS011;37874;53.158;6.766;2023-05-23T00:28:01;5.95;;;3.53;;
51814;SDS011;37874;53.158;6.766;2023-05-23T00:30:28;5.97;;;3.60;;
51814;SDS011;37874;53.158;6.766;2023-05-23T00:32:55;6.07;;;3.42;;
51814;SDS011;37874;53.158;6.766;2023-05-23T00:35:21;6.45;;;3.80;;
51814;SDS011;37874;53.158;6.766;2023-05-23T00:37:47;8.07;;;3.70;;
51814;SDS011;37874;53.158;6.766;2023-05-23T00:40:15;5.63;;;3.28;;
51814;SDS011;37874;53.158;6.766;2023-05-23T00:42:41;4.60;;;2.97;;
51814;SDS011;37874;53.158;6.766;2023-05-23T00:45:07;5.70;;;3.30;;
51814;SDS011;37874;53.158;6.766;2023-05-23T00:47:33;6.40;;;3.58;;
51814;SDS011;37874;53.158;6.766;2023-05-23T00:49:59;6.15;;;3.63;;
51814;SDS011;37874;53.158;6.766;2023-05-23T00:52:24;5.88;;;3.28;;
51814;SDS011;37874;53.158;6.766;2023-05-23T00:54:50;6.50;;;3.70;;
51814;SDS011;37874;53.158;6.766;2023-05-23T00:57:16;6.85;;;3.13;;
51814;SDS011;37874;53.158;6.766;2023-05-23T00:59:41;6.15;;;3.30;;
51814;SDS011;37874;53.158;6.766;2023-05-23T01:02:09;5.00;;;3.38;;
51814;SDS011;37874;53.158;6.766;2023-05-23T01:04:36;6.35;;;3.10;;
51814;SDS011;37874;53.158;6.766;2023-05-23T01:07:02;5.43;;;3.60;;
51814;SDS011;37874;53.158;6.766;2023-05-23T01:09:28;6.28;;;3.90;;
51814;SDS011;37874;53.158;6.766;2023-05-23T01:20:20;5.70;;;3.60;;
51814;SDS011;37874;53.158;6.766;2023-05-23T01:27:59;7.80;;;3.45;;
51814;SDS011;37874;53.158;6.766;2023-05-23T01:30:28;5.47;;;3.53;;
51814;SDS011;37874;53.158;6.766;2023-05-23T01:32:56;5.78;;;3.05;;
51814;SDS011;37874;53.158;6.766;2023-05-23T01:35:23;5.45;;;3.03;;
51814;SDS011;37874;53.158;6.766;2023-05-23T01:37:53;4.95;;;3.00;;
51814;SDS011;37874;53.158;6.766;2023-05-23T01:40:19;5.75;;;2.97;;
51814;SDS011;37874;53.158;6.766;2023-05-23T01:42:49;4.35;;;2.80;;
51814;SDS011;37874;53.158;6.766;2023-05-23T01:45:15;5.40;;;3.20;;
51814;SDS011;37874;53.158;6.766;2023-05-23T01:47:42;4.80;;;2.95;;
51814;SDS011;37874;53.158;6.766;2023-05-23T01:50:08;4.20;;;2.80;;
51814;SDS011;37874;53.158;6.766;2023-05-23T01:52:35;5.88;;;3.00;;
51814;SDS011;37874;53.158;6.766;2023-05-23T01:55:02;5.32;;;2.47;;
51814;SDS011;37874;53.158;6.766;2023-05-23T01:57:34;5.80;;;3.35;;
51814;SDS011;37874;53.158;6.766;2023-05-23T02:00:02;5.40;;;2.88;;
51814;SDS011;37874;53.158;6.766;2023-05-23T02:02:34;5.22;;;2.97;;
51814;SDS011;37874;53.158;6.766;2023-05-23T02:04:59;6.55;;;2.85;;
51814;SDS011;37874;53.158;6.766;2023-05-23T02:07:25;5.15;;;2.63;;
51814;SDS011;37874;53.158;6.766;2023-05-23T02:09:51;5.82;;;3.40;;
51814;SDS011;37874;53.158;6.766;2023-05-23T02:12:16;6.97;;;3.30;;
51814;SDS011;37874;53.158;6.766;2023-05-23T02:14:42;4.22;;;2.50;;
51814;SDS011;37874;53.158;6.766;2023-05-23T02:17:07;5.50;;;2.72;;
51814;SDS011;37874;53.158;6.766;2023-05-23T02:19:36;4.78;;;2.88;;
51814;SDS011;37874;53.158;6.766;2023-05-23T02:22:02;5.68;;;2.72;;
51814;SDS011;37874;53.158;6.766;2023-05-23T02:24:27;4.88;;;2.83;;
51814;SDS011;37874;53.158;6.766;2023-05-23T02:26:53;5.78;;;2.85;;
51814;SDS011;37874;53.158;6.766;2023-05-23T02:29:19;5.43;;;2.78;;
51814;SDS011;37874;53.158;6.766;2023-05-23T02:31:45;5.47;;;2.90;;
51814;SDS011;37874;53.158;6.766;2023-05-23T02:34:10;4.97;;;2.65;;
51814;SDS011;37874;53.158;6.766;2023-05-23T02:36:36;5.72;;;3.20;;
51814;SDS011;37874;53.158;6.766;2023-05-23T02:39:03;5.28;;;2.83;;
51814;SDS011;37874;53.158;6.766;2023-05-23T02:41:29;5.97;;;2.67;;
51814;SDS011;37874;53.158;6.766;2023-05-23T02:43:55;4.15;;;2.60;;
51814;SDS011;37874;53.158;6.766;2023-05-23T02:46:21;4.00;;;2.40;;
51814;SDS011;37874;53.158;6.766;2023-05-23T02:48:47;5.85;;;2.90;;
51814;SDS011;37874;53.158;6.766;2023-05-23T02:51:12;5.03;;;2.88;;
51814;SDS011;37874;53.158;6.766;2023-05-23T02:53:38;4.65;;;2.90;;
51814;SDS011;37874;53.158;6.766;2023-05-23T02:56:04;4.57;;;2.40;;
51814;SDS011;37874;53.158;6.766;2023-05-23T02:58:32;5.35;;;2.70;;
51814;SDS011;37874;53.158;6.766;2023-05-23T03:01:03;4.53;;;2.72;;
51814;SDS011;37874;53.158;6.766;2023-05-23T03:03:28;5.20;;;2.63;;
51814;SDS011;37874;53.158;6.766;2023-05-23T03:05:57;4.20;;;2.60;;
51814;SDS011;37874;53.158;6.766;2023-05-23T03:08:23;5.55;;;2.83;;
51814;SDS011;37874;53.158;6.766;2023-05-23T03:10:49;5.32;;;2.70;;
51814;SDS011;37874;53.158;6.766;2023-05-23T03:13:15;5.32;;;2.58;;
51814;SDS011;37874;53.158;6.766;2023-05-23T03:15:41;7.05;;;3.05;;
51814;SDS011;37874;53.158;6.766;2023-05-23T03:18:07;4.32;;;2.38;;
51814;SDS011;37874;53.158;6.766;2023-05-23T03:20:32;4.68;;;2.90;;
51814;SDS011;37874;53.158;6.766;2023-05-23T03:22:58;4.97;;;3.05;;
51814;SDS011;37874;53.158;6.766;2023-05-23T03:25:23;5.25;;;2.70;;
51814;SDS011;37874;53.158;6.766;2023-05-23T03:27:49;4.28;;;2.63;;
51814;SDS011;37874;53.158;6.766;2023-05-23T03:30:15;4.10;;;2.50;;
51814;SDS011;37874;53.158;6.766;2023-05-23T03:32:41;4.60;;;2.67;;
51814;SDS011;37874;53.158;6.766;2023-05-23T05:36:15;4.03;;;1.77;;
51814;SDS011;37874;53.158;6.766;2023-05-23T05:38:41;3.65;;;1.90;;
51814;SDS011;37874;53.158;6.766;2023-05-23T05:41:07;5.72;;;2.60;;
51814;SDS011;37874;53.158;6.766;2023-05-23T05:43:32;4.05;;;1.98;;
51814;SDS011;37874;53.158;6.766;2023-05-23T05:45:58;4.93;;;2.20;;
51814;SDS011;37874;53.158;6.766;2023-05-23T05:48:23;4.55;;;2.28;;
51814;SDS011;37874;53.158;6.766;2023-05-23T05:50:49;3.88;;;2.10;;
51814;SDS011;37874;53.158;6.766;2023-05-23T05:53:14;3.72;;;1.88;;
51814;SDS011;37874;53.158;6.766;2023-05-23T05:55:40;6.38;;;2.53;;
51814;SDS011;37874;53.158;6.766;2023-05-23T05:58:06;3.75;;;1.90;;
51814;SDS011;37874;53.158;6.766;2023-05-23T06:00:32;3.70;;;2.08;;
51814;SDS011;37874;53.158;6.766;2023-05-23T06:03:05;3.58;;;2.10;;
51814;SDS011;37874;53.158;6.766;2023-05-23T06:05:34;4.75;;;2.20;;
51814;SDS011;37874;53.158;6.766;2023-05-23T06:08:01;5.70;;;2.22;;
51814;SDS011;37874;53.158;6.766;2023-05-23T06:10:27;3.38;;;1.90;;
51814;SDS011;37874;53.158;6.766;2023-05-23T06:12:53;5.78;;;2.30;;
51814;SDS011;37874;53.158;6.766;2023-05-23T06:15:19;5.10;;;2.00;;
51814;SDS011;37874;53.158;6.766;2023-05-23T06:17:44;5.47;;;2.53;;
51814;SDS011;37874;53.158;6.766;2023-05-23T06:20:10;5.93;;;2.20;;
51814;SDS011;37874;53.158;6.766;2023-05-23T06:22:36;3.15;;;1.70;;
51814;SDS011;37874;53.158;6.766;2023-05-23T06:25:02;3.72;;;1.80;;
51814;SDS011;37874;53.158;6.766;2023-05-23T06:27:28;5.40;;;2.00;;
51814;SDS011;37874;53.158;6.766;2023-05-23T06:29:53;4.57;;;1.60;;
51814;SDS011;37874;53.158;6.766;2023-05-23T06:32:19;4.82;;;2.00;;
51814;SDS011;37874;53.158;6.766;2023-05-23T06:34:45;3.95;;;2.33;;
51814;SDS011;37874;53.158;6.766;2023-05-23T06:37:10;4.93;;;1.80;;
51814;SDS011;37874;53.158;6.766;2023-05-23T06:39:36;5.40;;;1.90;;
51814;SDS011;37874;53.158;6.766;2023-05-23T06:42:01;4.75;;;1.90;;
51814;SDS011;37874;53.158;6.766;2023-05-23T06:44:28;5.38;;;1.90;;
51814;SDS011;37874;53.158;6.766;2023-05-23T06:46:54;3.90;;;1.80;;
51814;SDS011;37874;53.158;6.766;2023-05-23T06:49:22;4.35;;;1.48;;
51814;SDS011;37874;53.158;6.766;2023-05-23T06:51:48;4.93;;;2.10;;
51814;SDS011;37874;53.158;6.766;2023-05-23T06:54:14;3.97;;;1.98;;
51814;SDS011;37874;53.158;6.766;2023-05-23T06:56:39;4.38;;;1.85;;
51814;SDS011;37874;53.158;6.766;2023-05-23T06:59:05;3.83;;;1.65;;
51814;SDS011;37874;53.158;6.766;2023-05-23T07:01:31;4.53;;;1.75;;
51814;SDS011;37874;53.158;6.766;2023-05-23T07:03:56;4.93;;;1.42;;
51814;SDS011;37874;53.158;6.766;2023-05-23T07:06:22;3.53;;;1.75;;
51814;SDS011;37874;53.158;6.766;2023-05-23T07:08:47;4.65;;;1.88;;
51814;SDS011;37874;53.158;6.766;2023-05-23T07:11:13;5.85;;;1.58;;
51814;SDS011;37874;53.158;6.766;2023-05-23T07:13:38;4.53;;;1.65;;
51814;SDS011;37874;53.158;6.766;2023-05-23T07:16:04;7.13;;;2.10;;
51814;SDS011;37874;53.158;6.766;2023-05-23T07:18:30;6.50;;;2.05;;
51814;SDS011;37874;53.158;6.766;2023-05-23T07:20:55;5.35;;;1.73;;
51814;SDS011;37874;53.158;6.766;2023-05-23T07:23:22;5.57;;;2.22;;
51814;SDS011;37874;53.158;6.766;2023-05-23T07:25:48;5.03;;;1.80;;
51814;SDS011;37874;53.158;6.766;2023-05-23T07:28:14;4.03;;;1.60;;
51814;SDS011;37874;53.158;6.766;2023-05-23T07:30:40;7.50;;;2.00;;
51814;SDS011;37874;53.158;6.766;2023-05-23T07:33:06;4.85;;;1.92;;
51814;SDS011;37874;53.158;6.766;2023-05-23T07:35:32;5.43;;;2.13;;
51814;SDS011;37874;53.158;6.766;2023-05-23T07:37:57;5.07;;;1.92;;
51814;SDS011;37874;53.158;6.766;2023-05-23T07:40:23;5.13;;;1.60;;
51814;SDS011;37874;53.158;6.766;2023-05-23T07:42:49;5.28;;;1.65;;
51814;SDS011;37874;53.158;6.766;2023-05-23T07:45:14;4.38;;;1.60;;
51814;SDS011;37874;53.158;6.766;2023-05-23T07:47:40;4.45;;;1.70;;
51814;SDS011;37874;53.158;6.766;2023-05-23T07:50:06;4.47;;;1.85;;
51814;SDS011;37874;53.158;6.766;2023-05-23T07:52:32;4.47;;;1.33;;
51814;SDS011;37874;53.158;6.766;2023-05-23T07:54:59;3.63;;;1.60;;
51814;SDS011;37874;53.158;6.766;2023-05-23T07:57:25;4.68;;;1.63;;
51814;SDS011;37874;53.158;6.766;2023-05-23T07:59:51;4.90;;;1.70;;
51814;SDS011;37874;53.158;6.766;2023-05-23T08:02:17;3.72;;;1.45;;
51814;SDS011;37874;53.158;6.766;2023-05-23T08:04:43;4.20;;;1.52;;
51814;SDS011;37874;53.158;6.766;2023-05-23T08:07:10;4.97;;;1.50;;
51814;SDS011;37874;53.158;6.766;2023-05-23T08:09:38;5.50;;;1.88;;
51814;SDS011;37874;53.158;6.766;2023-05-23T08:12:05;4.70;;;1.55;;
51814;SDS011;37874;53.158;6.766;2023-05-23T08:14:31;5.82;;;1.80;;
51814;SDS011;37874;53.158;6.766;2023-05-23T08:16:56;5.68;;;1.60;;
51814;SDS011;37874;53.158;6.766;2023-05-23T08:19:22;3.40;;;1.40;;
51814;SDS011;37874;53.158;6.766;2023-05-23T08:21:48;4.80;;;1.60;;
51814;SDS011;37874;53.158;6.766;2023-05-23T08:24:13;5.85;;;1.70;;
51814;SDS011;37874;53.158;6.766;2023-05-23T08:26:39;7.25;;;1.70;;
51814;SDS011;37874;53.158;6.766;2023-05-23T08:29:05;5.47;;;1.65;;
51814;SDS011;37874;53.158;6.766;2023-05-23T08:31:34;4.88;;;1.80;;
51814;SDS011;37874;53.158;6.766;2023-05-23T08:33:59;5.53;;;1.80;;
51814;SDS011;37874;53.158;6.766;2023-05-23T08:36:25;4.25;;;1.70;;
51814;SDS011;37874;53.158;6.766;2023-05-23T08:38:51;5.60;;;1.60;;
51814;SDS011;37874;53.158;6.766;2023-05-23T08:41:20;4.82;;;1.60;;
51814;SDS011;37874;53.158;6.766;2023-05-23T08:43:47;7.32;;;1.70;;
51814;SDS011;37874;53.158;6.766;2023-05-23T08:46:13;4.65;;;1.50;;
51814;SDS011;37874;53.158;6.766;2023-05-23T08:48:40;3.38;;;1.40;;
51814;SDS011;37874;53.158;6.766;2023-05-23T08:51:08;4.40;;;1.70;;
51814;SDS011;37874;53.158;6.766;2023-05-23T08:53:37;4.82;;;1.48;;
51814;SDS011;37874;53.158;6.766;2023-05-23T08:56:08;4.43;;;1.42;;
51814;SDS011;37874;53.158;6.766;2023-05-23T08:58:34;5.07;;;1.67;;
51814;SDS011;37874;53.158;6.766;2023-05-23T09:01:00;4.15;;;1.60;;
51814;SDS011;37874;53.158;6.766;2023-05-23T09:03:26;5.28;;;1.80;;
51814;SDS011;37874;53.158;6.766;2023-05-23T09:05:52;6.25;;;1.88;;
51814;SDS011;37874;53.158;6.766;2023-05-23T09:08:18;5.45;;;1.85;;
51814;SDS011;37874;53.158;6.766;2023-05-23T09:10:45;5.70;;;1.60;;
51814;SDS011;37874;53.158;6.766;2023-05-23T09:13:15;5.28;;;1.30;;
51814;SDS011;37874;53.158;6.766;2023-05-23T09:15:54;5.05;;;1.48;;
51814;SDS011;37874;53.158;6.766;2023-05-23T09:18:23;4.80;;;1.90;;
51814;SDS011;37874;53.158;6.766;2023-05-23T09:20:57;6.47;;;1.92;;
51814;SDS011;37874;53.158;6.766;2023-05-23T09:23:23;5.32;;;1.52;;
51814;SDS011;37874;53.158;6.766;2023-05-23T09:25:48;4.40;;;1.40;;
51814;SDS011;37874;53.158;6.766;2023-05-23T09:28:14;4.75;;;1.67;;
51814;SDS011;37874;53.158;6.766;2023-05-23T09:30:39;4.35;;;1.50;;
51814;SDS011;37874;53.158;6.766;2023-05-23T09:33:05;3.55;;;1.38;;
51814;SDS011;37874;53.158;6.766;2023-05-23T09:35:31;5.28;;;1.50;;
51814;SDS011;37874;53.158;6.766;2023-05-23T09:37:57;4.22;;;1.67;;
51814;SDS011;37874;53.158;6.766;2023-05-23T09:40:23;5.75;;;1.80;;
51814;SDS011;37874;53.158;6.766;2023-05-23T09:43:00;5.70;;;1.50;;
51814;SDS011;37874;53.158;6.766;2023-05-23T09:45:28;4.93;;;1.63;;
51814;SDS011;37874;53.158;6.766;2023-05-23T09:47:55;4.82;;;1.55;;
51814;SDS011;37874;53.158;6.766;2023-05-23T09:50:21;4.25;;;1.50;;
51814;SDS011;37874;53.158;6.766;2023-05-23T09:52:46;2.65;;;1.40;;
51814;SDS011;37874;53.158;6.766;2023-05-23T09:55:12;4.80;;;1.58;;
51814;SDS011;37874;53.158;6.766;2023-05-23T09:57:39;5.45;;;1.90;;
51814;SDS011;37874;53.158;6.766;2023-05-23T10:00:06;5.93;;;1.60;;
51814;SDS011;37874;53.158;6.766;2023-05-23T10:05:52;5.93;;;1.80;;
51814;SDS011;37874;53.158;6.766;2023-05-23T10:08:31;4.63;;;1.90;;
51814;SDS011;37874;53.158;6.766;2023-05-23T10:13:39;5.05;;;1.65;;
51814;SDS011;37874;53.158;6.766;2023-05-23T10:18:44;3.53;;;1.50;;
51814;SDS011;37874;53.158;6.766;2023-05-23T10:21:18;4.43;;;1.50;;
51814;SDS011;37874;53.158;6.766;2023-05-23T10:23:48;4.72;;;1.30;;
51814;SDS011;37874;53.158;6.766;2023-05-23T10:26:15;5.07;;;1.83;;
51814;SDS011;37874;53.158;6.766;2023-05-23T10:28:42;5.88;;;1.40;;
51814;SDS011;37874;53.158;6.766;2023-05-23T10:31:09;4.05;;;1.40;;
51814;SDS011;37874;53.158;6.766;2023-05-23T10:33:37;5.15;;;1.35;;
51814;SDS011;37874;53.158;6.766;2023-05-23T10:36:08;4.35;;;1.40;;
51814;SDS011;37874;53.158;6.766;2023-05-23T10:38:44;3.65;;;1.20;;
51814;SDS011;37874;53.158;6.766;2023-05-23T10:41:17;4.63;;;1.30;;
51814;SDS011;37874;53.158;6.766;2023-05-23T10:43:56;6.07;;;1.90;;
51814;SDS011;37874;53.158;6.766;2023-05-23T10:46:58;5.90;;;1.67;;
51814;SDS011;37874;53.158;6.766;2023-05-23T10:49:41;3.05;;;1.38;;
51814;SDS011;37874;53.158;6.766;2023-05-23T10:52:15;6.00;;;1.60;;
51814;SDS011;37874;53.158;6.766;2023-05-23T10:54:42;4.65;;;1.70;;
51814;SDS011;37874;53.158;6.766;2023-05-23T10:57:15;3.75;;;1.40;;
51814;SDS011;37874;53.158;6.766;2023-05-23T10:59:41;4.70;;;1.40;;
51814;SDS011;37874;53.158;6.766;2023-05-23T11:02:12;3.22;;;1.23;;
51814;SDS011;37874;53.158;6.766;2023-05-23T11:04:40;5.80;;;1.80;;
51814;SDS011;37874;53.158;6.766;2023-05-23T11:07:27;6.10;;;1.70;;
51814;SDS011;37874;53.158;6.766;2023-05-23T11:12:48;4.45;;;1.58;;
51814;SDS011;37874;53.158;6.766;2023-05-23T11:17:51;4.68;;;1.30;;
51814;SDS011;37874;53.158;6.766;2023-05-23T11:20:22;3.33;;;1.20;;
51814;SDS011;37874;53.158;6.766;2023-05-23T11:23:00;4.10;;;1.42;;
51814;SDS011;37874;53.158;6.766;2023-05-23T11:25:42;4.20;;;1.70;;
51814;SDS011;37874;53.158;6.766;2023-05-23T11:28:10;6.95;;;1.90;;
51814;SDS011;37874;53.158;6.766;2023-05-23T11:30:36;4.55;;;1.60;;
51814;SDS011;37874;53.158;6.766;2023-05-23T11:33:09;4.28;;;1.30;;
51814;SDS011;37874;53.158;6.766;2023-05-23T11:35:44;4.15;;;1.20;;
51814;SDS011;37874;53.158;6.766;2023-05-23T11:38:11;4.13;;;1.52;;
51814;SDS011;37874;53.158;6.766;2023-05-23T11:40:39;3.83;;;1.25;;
51814;SDS011;37874;53.158;6.766;2023-05-23T11:43:07;3.88;;;1.10;;
51814;SDS011;37874;53.158;6.766;2023-05-23T11:45:35;3.70;;;1.30;;
51814;SDS011;37874;53.158;6.766;2023-05-23T11:48:08;3.97;;;1.27;;
51814;SDS011;37874;53.158;6.766;2023-05-23T11:50:46;5.25;;;1.23;;
51814;SDS011;37874;53.158;6.766;2023-05-23T11:53:13;3.78;;;1.13;;
51814;SDS011;37874;53.158;6.766;2023-05-23T11:55:52;4.72;;;1.30;;
51814;SDS011;37874;53.158;6.766;2023-05-23T11:58:20;5.13;;;1.52;;
51814;SDS011;37874;53.158;6.766;2023-05-23T12:01:05;4.90;;;1.45;;
51814;SDS011;37874;53.158;6.766;2023-05-23T12:03:45;3.35;;;1.10;;
51814;SDS011;37874;53.158;6.766;2023-05-23T12:06:15;5.18;;;1.58;;
51814;SDS011;37874;53.158;6.766;2023-05-23T12:08:46;4.63;;;1.25;;
51814;SDS011;37874;53.158;6.766;2023-05-23T12:11:12;3.97;;;1.50;;
51814;SDS011;37874;53.158;6.766;2023-05-23T12:13:39;4.10;;;1.45;;
51814;SDS011;37874;53.158;6.766;2023-05-23T12:16:06;4.05;;;1.33;;
51814;SDS011;37874;53.158;6.766;2023-05-23T12:18:32;4.22;;;1.38;;
51814;SDS011;37874;53.158;6.766;2023-05-23T12:21:03;2.95;;;1.08;;
51814;SDS011;37874;53.158;6.766;2023-05-23T12:23:31;4.63;;;1.35;;
51814;SDS011;37874;53.158;6.766;2023-05-23T12:25:58;6.05;;;1.45;;
51814;SDS011;37874;53.158;6.766;2023-05-23T12:28:37;4.15;;;1.20;;
51814;SDS011;37874;53.158;6.766;2023-05-23T12:31:20;4.50;;;1.40;;
51814;SDS011;37874;53.158;6.766;2023-05-23T12:33:47;6.18;;;1.25;;
51814;SDS011;37874;53.158;6.766;2023-05-23T12:36:13;3.05;;;0.95;;
51814;SDS011;37874;53.158;6.766;2023-05-23T12:38:40;4.65;;;1.35;;
51814;SDS011;37874;53.158;6.766;2023-05-23T12:41:15;4.95;;;1.33;;
51814;SDS011;37874;53.158;6.766;2023-05-23T12:46:16;4.90;;;1.45;;
51814;SDS011;37874;53.158;6.766;2023-05-23T12:48:42;6.28;;;1.92;;
51814;SDS011;37874;53.158;6.766;2023-05-23T12:51:07;6.55;;;2.17;;
51814;SDS011;37874;53.158;6.766;2023-05-23T12:53:33;5.85;;;1.42;;
51814;SDS011;37874;53.158;6.766;2023-05-23T12:55:58;6.28;;;1.58;;
51814;SDS011;37874;53.158;6.766;2023-05-23T12:58:24;5.20;;;1.70;;
51814;SDS011;37874;53.158;6.766;2023-05-23T13:00:50;5.90;;;1.77;;
51814;SDS011;37874;53.158;6.766;2023-05-23T13:03:16;5.95;;;1.65;;
51814;SDS011;37874;53.158;6.766;2023-05-23T13:05:42;6.30;;;1.80;;
51814;SDS011;37874;53.158;6.766;2023-05-23T13:08:08;6.68;;;2.10;;
51814;SDS011;37874;53.158;6.766;2023-05-23T13:10:33;5.70;;;1.50;;
51814;SDS011;37874;53.158;6.766;2023-05-23T13:12:59;4.78;;;1.80;;
51814;SDS011;37874;53.158;6.766;2023-05-23T13:15:24;4.95;;;1.80;;
51814;SDS011;37874;53.158;6.766;2023-05-23T13:17:50;6.90;;;1.63;;
51814;SDS011;37874;53.158;6.766;2023-05-23T13:20:16;7.60;;;2.00;;
51814;SDS011;37874;53.158;6.766;2023-05-23T13:22:42;6.50;;;1.85;;
51814;SDS011;37874;53.158;6.766;2023-05-23T13:25:08;4.38;;;1.70;;
51814;SDS011;37874;53.158;6.766;2023-05-23T13:27:33;4.45;;;1.40;;
51814;SDS011;37874;53.158;6.766;2023-05-23T13:29:59;7.72;;;1.73;;
51814;SDS011;37874;53.158;6.766;2023-05-23T13:32:25;8.75;;;1.80;;
51814;SDS011;37874;53.158;6.766;2023-05-23T13:34:50;6.70;;;1.40;;
51814;SDS011;37874;53.158;6.766;2023-05-23T13:37:16;5.78;;;1.60;;
51814;SDS011;37874;53.158;6.766;2023-05-23T13:39:42;5.15;;;1.40;;
51814;SDS011;37874;53.158;6.766;2023-05-23T13:42:08;4.50;;;1.42;;
51814;SDS011;37874;53.158;6.766;2023-05-23T13:44:34;4.28;;;1.50;;
51814;SDS011;37874;53.158;6.766;2023-05-23T13:47:10;6.35;;;1.45;;
51814;SDS011;37874;53.158;6.766;2023-05-23T13:49:37;4.43;;;1.27;;
51814;SDS011;37874;53.158;6.766;2023-05-23T13:52:03;5.80;;;1.30;;
51814;SDS011;37874;53.158;6.766;2023-05-23T13:54:28;5.60;;;1.42;;
51814;SDS011;37874;53.158;6.766;2023-05-23T13:56:54;4.15;;;1.38;;
51814;SDS011;37874;53.158;6.766;2023-05-23T13:59:20;3.67;;;1.20;;
51814;SDS011;37874;53.158;6.766;2023-05-23T14:01:46;5.30;;;1.10;;
51814;SDS011;37874;53.158;6.766;2023-05-23T14:04:12;5.43;;;1.38;;
51814;SDS011;37874;53.158;6.766;2023-05-23T14:06:38;5.15;;;1.20;;
51814;SDS011;37874;53.158;6.766;2023-05-23T14:09:03;4.30;;;1.20;;
51814;SDS011;37874;53.158;6.766;2023-05-23T14:11:30;4.82;;;1.30;;
51814;SDS011;37874;53.158;6.766;2023-05-23T14:13:56;5.18;;;1.05;;
51814;SDS011;37874;53.158;6.766;2023-05-23T14:16:22;2.58;;;0.88;;
51814;SDS011;37874;53.158;6.766;2023-05-23T14:18:48;4.22;;;1.10;;
51814;SDS011;37874;53.158;6.766;2023-05-23T14:21:14;5.70;;;1.00;;
51814;SDS011;37874;53.158;6.766;2023-05-23T14:23:39;4.38;;;1.23;;
51814;SDS011;37874;53.158;6.766;2023-05-23T14:26:05;4.05;;;1.35;;
51814;SDS011;37874;53.158;6.766;2023-05-23T14:28:31;6.43;;;1.30;;
51814;SDS011;37874;53.158;6.766;2023-05-23T14:30:57;3.63;;;1.15;;
51814;SDS011;37874;53.158;6.766;2023-05-23T14:33:23;4.70;;;1.48;;
51814;SDS011;37874;53.158;6.766;2023-05-23T14:35:49;4.43;;;1.17;;
51814;SDS011;37874;53.158;6.766;2023-05-23T14:38:15;4.28;;;1.15;;
51814;SDS011;37874;53.158;6.766;2023-05-23T14:40:41;2.90;;;1.15;;
51814;SDS011;37874;53.158;6.766;2023-05-23T14:43:07;4.63;;;1.20;;
51814;SDS011;37874;53.158;6.766;2023-05-23T14:45:33;4.05;;;1.20;;
51814;SDS011;37874;53.158;6.766;2023-05-23T14:47:59;3.90;;;1.20;;
51814;SDS011;37874;53.158;6.766;2023-05-23T14:50:24;3.88;;;1.33;;
51814;SDS011;37874;53.158;6.766;2023-05-23T14:52:50;4.13;;;1.20;;
51814;SDS011;37874;53.158;6.766;2023-05-23T14:55:16;4.13;;;1.25;;
51814;SDS011;37874;53.158;6.766;2023-05-23T14:57:42;3.55;;;1.02;;
51814;SDS011;37874;53.158;6.766;2023-05-23T15:00:08;3.60;;;1.15;;
51814;SDS011;37874;53.158;6.766;2023-05-23T15:02:35;3.42;;;1.13;;
51814;SDS011;37874;53.158;6.766;2023-05-23T15:05:02;4.20;;;1.33;;
51814;SDS011;37874;53.158;6.766;2023-05-23T15:07:28;4.70;;;1.58;;
51814;SDS011;37874;53.158;6.766;2023-05-23T15:09:54;4.15;;;1.10;;
51814;SDS011;37874;53.158;6.766;2023-05-23T15:12:20;5.00;;;1.40;;
51814;SDS011;37874;53.158;6.766;2023-05-23T15:14:46;4.68;;;1.33;;
51814;SDS011;37874;53.158;6.766;2023-05-23T15:17:12;5.75;;;1.58;;
51814;SDS011;37874;53.158;6.766;2023-05-23T15:19:43;4.90;;;1.50;;
51814;SDS011;37874;53.158;6.766;2023-05-23T15:22:10;4.20;;;1.27;;
51814;SDS011;37874;53.158;6.766;2023-05-23T15:24:36;2.67;;;1.00;;
51814;SDS011;37874;53.158;6.766;2023-05-23T15:27:01;4.15;;;1.42;;
51814;SDS011;37874;53.158;6.766;2023-05-23T15:29:27;6.10;;;1.38;;
51814;SDS011;37874;53.158;6.766;2023-05-23T15:31:52;4.60;;;1.38;;
51814;SDS011;37874;53.158;6.766;2023-05-23T15:34:18;6.50;;;1.67;;
51814;SDS011;37874;53.158;6.766;2023-05-23T15:36:44;7.35;;;1.50;;
51814;SDS011;37874;53.158;6.766;2023-05-23T15:39:10;5.97;;;1.38;;
51814;SDS011;37874;53.158;6.766;2023-05-23T15:41:36;3.72;;;1.33;;
51814;SDS011;37874;53.158;6.766;2023-05-23T15:44:03;5.00;;;1.63;;
51814;SDS011;37874;53.158;6.766;2023-05-23T15:46:28;5.38;;;1.48;;
51814;SDS011;37874;53.158;6.766;2023-05-23T15:48:54;4.22;;;1.63;;
51814;SDS011;37874;53.158;6.766;2023-05-23T15:51:26;3.45;;;1.13;;
51814;SDS011;37874;53.158;6.766;2023-05-23T15:53:52;4.25;;;1.42;;
51814;SDS011;37874;53.158;6.766;2023-05-23T15:56:18;5.75;;;1.42;;
51814;SDS011;37874;53.158;6.766;2023-05-23T15:58:43;4.38;;;1.50;;
51814;SDS011;37874;53.158;6.766;2023-05-23T16:01:09;5.10;;;1.35;;
51814;SDS011;37874;53.158;6.766;2023-05-23T16:03:35;5.93;;;1.58;;
51814;SDS011;37874;53.158;6.766;2023-05-23T16:06:01;4.97;;;1.23;;
51814;SDS011;37874;53.158;6.766;2023-05-23T16:08:27;4.50;;;1.48;;
51814;SDS011;37874;53.158;6.766;2023-05-23T16:10:53;5.28;;;1.40;;
51814;SDS011;37874;53.158;6.766;2023-05-23T16:13:18;5.32;;;1.55;;
51814;SDS011;37874;53.158;6.766;2023-05-23T16:15:44;5.32;;;1.60;;
51814;SDS011;37874;53.158;6.766;2023-05-23T16:18:10;5.22;;;1.67;;
51814;SDS011;37874;53.158;6.766;2023-05-23T16:20:35;6.13;;;1.50;;
51814;SDS011;37874;53.158;6.766;2023-05-23T16:23:01;3.92;;;1.40;;
51814;SDS011;37874;53.158;6.766;2023-05-23T16:25:27;5.40;;;1.67;;
51814;SDS011;37874;53.158;6.766;2023-05-23T16:27:53;5.68;;;1.60;;
51814;SDS011;37874;53.158;6.766;2023-05-23T16:30:18;4.72;;;1.40;;
51814;SDS011;37874;53.158;6.766;2023-05-23T16:32:44;4.88;;;1.45;;
51814;SDS011;37874;53.158;6.766;2023-05-23T16:35:10;4.43;;;1.20;;
51814;SDS011;37874;53.158;6.766;2023-05-23T16:37:36;5.20;;;1.50;;
51814;SDS011;37874;53.158;6.766;2023-05-23T16:40:02;5.28;;;1.50;;
51814;SDS011;37874;53.158;6.766;2023-05-23T16:42:29;4.13;;;1.10;;
51814;SDS011;37874;53.158;6.766;2023-05-23T16:44:54;4.60;;;1.20;;
51814;SDS011;37874;53.158;6.766;2023-05-23T16:47:20;4.20;;;1.40;;
51814;SDS011;37874;53.158;6.766;2023-05-23T16:49:46;6.55;;;1.30;;
51814;SDS011;37874;53.158;6.766;2023-05-23T16:52:11;4.45;;;1.10;;
51814;SDS011;37874;53.158;6.766;2023-05-23T16:54:37;6.25;;;1.27;;
51814;SDS011;37874;53.158;6.766;2023-05-23T16:57:03;4.22;;;1.33;;
51814;SDS011;37874;53.158;6.766;2023-05-23T16:59:29;4.78;;;1.23;;
51814;SDS011;37874;53.158;6.766;2023-05-23T17:01:55;4.68;;;1.30;;
51814;SDS011;37874;53.158;6.766;2023-05-23T17:04:21;4.38;;;1.33;;
51814;SDS011;37874;53.158;6.766;2023-05-23T17:06:47;4.95;;;1.30;;
51814;SDS011;37874;53.158;6.766;2023-05-23T17:09:12;5.00;;;1.40;;
51814;SDS011;37874;53.158;6.766;2023-05-23T17:11:38;5.60;;;1.27;;
51814;SDS011;37874;53.158;6.766;2023-05-23T17:14:03;4.03;;;1.40;;
51814;SDS011;37874;53.158;6.766;2023-05-23T17:16:29;4.38;;;1.10;;
51814;SDS011;37874;53.158;6.766;2023-05-23T17:18:57;3.53;;;1.23;;